sensor_id;sensor_type;location;lat;lon;timestamp;temperature;humidity
52513;DHT22;38422;53.172;6.974;2023-12-20T00:01:32;6.20;99.90
52513;DHT22;38422;53.172;6.974;2023-12-20T00:03:58;6.20;99.90
52513;DHT22;38422;53.172;6.974;2023-12-20T00:06:23;6.10;99.90
52513;DHT22;38422;53.172;6.974;2023-12-20T00:08:49;6.10;99.90
52513;DHT22;38422;53.172;6.974;2023-12-20T00:11:15;6.10;99.90
52513;DHT22;38422;53.172;6.974;2023-12-20T00:13:40;6.10;99.90
52513;DHT22;38422;53.172;6.974;2023-12-20T00:16:06;6.00;99.90
52513;DHT22;38422;53.172;6.974;2023-12-20T00:18:32;6.00;99.90
52513;DHT22;38422;53.172;6.974;2023-12-20T00:20:57;6.00;99.90
52513;DHT22;38422;53.172;6.974;2023-12-20T00:23:23;6.00;99.90
52513;DHT22;38422;53.172;6.974;2023-12-20T00:25:49;5.90;99.90
52513;DHT22;38422;53.172;6.974;2023-12-20T00:28:15;5.90;99.90
52513;DHT22;38422;53.172;6.974;2023-12-20T00:30:41;5.90;99.90
52513;DHT22;38422;53.172;6.974;2023-12-20T00:33:06;5.90;99.90
52513;DHT22;38422;53.172;6.974;2023-12-20T00:35:32;5.90;99.90
52513;DHT22;38422;53.172;6.974;2023-12-20T00:37:59;5.90;99.90
52513;DHT22;38422;53.172;6.974;2023-12-20T00:40:24;5.90;99.90
52513;DHT22;38422;53.172;6.974;2023-12-20T00:42:50;5.80;99.90
52513;DHT22;38422;53.172;6.974;2023-12-20T00:45:16;5.80;99.90
52513;DHT22;38422;53.172;6.974;2023-12-20T00:47:41;5.80;99.90
52513;DHT22;38422;53.172;6.974;2023-12-20T00:50:08;5.80;99.90
52513;DHT22;38422;53.172;6.974;2023-12-20T00:52:33;5.70;99.90
52513;DHT22;38422;53.172;6.974;2023-12-20T00:54:59;5.70;99.90
52513;DHT22;38422;53.172;6.974;2023-12-20T00:57:25;5.70;99.90
52513;DHT22;38422;53.172;6.974;2023-12-20T00:59:51;5.70;99.90
52513;DHT22;38422;53.172;6.974;2023-12-20T01:02:16;5.70;99.90
52513;DHT22;38422;53.172;6.974;2023-12-20T01:04:42;5.70;99.90
52513;DHT22;38422;53.172;6.974;2023-12-20T01:07:08;5.70;99.90
52513;DHT22;38422;53.172;6.974;2023-12-20T01:09:33;5.70;99.90
52513;DHT22;38422;53.172;6.974;2023-12-20T01:11:59;5.70;99.90
52513;DHT22;38422;53.172;6.974;2023-12-20T01:14:25;5.70;99.90
52513;DHT22;38422;53.172;6.974;2023-12-20T01:16:51;5.70;99.90
52513;DHT22;38422;53.172;6.974;2023-12-20T01:19:16;5.70;99.90
52513;DHT22;38422;53.172;6.974;2023-12-20T01:21:42;5.70;99.90
52513;DHT22;38422;53.172;6.974;2023-12-20T01:24:08;5.70;99.90
52513;DHT22;38422;53.172;6.974;2023-12-20T01:26:33;5.70;99.90
52513;DHT22;38422;53.172;6.974;2023-12-20T01:28:59;5.70;99.90
52513;DHT22;38422;53.172;6.974;2023-12-20T01:31:25;5.70;99.90
52513;DHT22;38422;53.172;6.974;2023-12-20T01:33:52;5.70;99.90
52513;DHT22;38422;53.172;6.974;2023-12-20T01:36:18;5.70;99.90
52513;DHT22;38422;53.172;6.974;2023-12-20T01:38:44;5.70;99.90
52513;DHT22;38422;53.172;6.974;2023-12-20T01:41:09;5.80;99.90
52513;DHT22;38422;53.172;6.974;2023-12-20T01:43:35;5.80;99.90
52513;DHT22;38422;53.172;6.974;2023-12-20T01:46:01;5.70;99.90
52513;DHT22;38422;53.172;6.974;2023-12-20T01:48:27;5.70;99.90
52513;DHT22;38422;53.172;6.974;2023-12-20T01:50:54;5.70;99.90
52513;DHT22;38422;53.172;6.974;2023-12-20T01:53:21;5.70;99.90
52513;DHT22;38422;53.172;6.974;2023-12-20T01:55:50;5.70;99.90
52513;DHT22;38422;53.172;6.974;2023-12-20T01:58:18;5.70;99.90
52513;DHT22;38422;53.172;6.974;2023-12-20T02:00:44;5.70;99.90
52513;DHT22;38422;53.172;6.974;2023-12-20T02:03:11;5.80;99.90
52513;DHT22;38422;53.172;6.974;2023-12-20T02:05:38;5.80;99.90
52513;DHT22;38422;53.172;6.974;2023-12-20T02:08:04;5.80;99.90
52513;DHT22;38422;53.172;6.974;2023-12-20T02:10:31;5.80;99.90
52513;DHT22;38422;53.172;6.974;2023-12-20T02:12:57;5.90;99.90
52513;DHT22;38422;53.172;6.974;2023-12-20T02:15:23;5.90;99.90
52513;DHT22;38422;53.172;6.974;2023-12-20T02:17:49;5.90;99.90
52513;DHT22;38422;53.172;6.974;2023-12-20T02:20:14;5.90;99.90
52513;DHT22;38422;53.172;6.974;2023-12-20T02:22:40;5.90;99.90
52513;DHT22;38422;53.172;6.974;2023-12-20T02:25:06;5.90;99.90
52513;DHT22;38422;53.172;6.974;2023-12-20T02:27:32;5.90;99.90
52513;DHT22;38422;53.172;6.974;2023-12-20T02:29:58;5.90;99.90
52513;DHT22;38422;53.172;6.974;2023-12-20T02:32:24;5.90;99.90
52513;DHT22;38422;53.172;6.974;2023-12-20T02:34:54;5.90;99.90
52513;DHT22;38422;53.172;6.974;2023-12-20T02:37:20;5.90;99.90
52513;DHT22;38422;53.172;6.974;2023-12-20T02:39:45;5.90;99.90
52513;DHT22;38422;53.172;6.974;2023-12-20T02:42:11;5.90;99.90
52513;DHT22;38422;53.172;6.974;2023-12-20T02:44:37;5.90;99.90
52513;DHT22;38422;53.172;6.974;2023-12-20T02:47:03;5.90;99.90
52513;DHT22;38422;53.172;6.974;2023-12-20T02:49:29;5.90;99.90
52513;DHT22;38422;53.172;6.974;2023-12-20T02:51:54;5.90;99.90
52513;DHT22;38422;53.172;6.974;2023-12-20T02:54:20;5.90;99.90
52513;DHT22;38422;53.172;6.974;2023-12-20T02:56:46;5.90;99.90
52513;DHT22;38422;53.172;6.974;2023-12-20T02:59:11;5.90;99.90
52513;DHT22;38422;53.172;6.974;2023-12-20T03:01:46;5.80;99.90
52513;DHT22;38422;53.172;6.974;2023-12-20T03:04:12;5.80;99.90
52513;DHT22;38422;53.172;6.974;2023-12-20T03:06:38;5.80;99.90
52513;DHT22;38422;53.172;6.974;2023-12-20T03:09:04;5.80;99.90
52513;DHT22;38422;53.172;6.974;2023-12-20T03:11:30;5.80;99.90
52513;DHT22;38422;53.172;6.974;2023-12-20T03:13:56;5.90;99.90
52513;DHT22;38422;53.172;6.974;2023-12-20T03:16:22;5.90;99.90
52513;DHT22;38422;53.172;6.974;2023-12-20T03:18:48;5.90;99.90
52513;DHT22;38422;53.172;6.974;2023-12-20T03:21:14;5.90;99.90
52513;DHT22;38422;53.172;6.974;2023-12-20T03:23:40;5.90;99.90
52513;DHT22;38422;53.172;6.974;2023-12-20T03:26:09;5.90;99.90
52513;DHT22;38422;53.172;6.974;2023-12-20T03:28:36;5.90;99.90
52513;DHT22;38422;53.172;6.974;2023-12-20T03:31:02;5.90;99.90
52513;DHT22;38422;53.172;6.974;2023-12-20T03:33:28;5.80;99.90
52513;DHT22;38422;53.172;6.974;2023-12-20T03:35:54;5.80;99.90
52513;DHT22;38422;53.172;6.974;2023-12-20T03:38:20;5.80;99.90
52513;DHT22;38422;53.172;6.974;2023-12-20T03:40:46;5.70;99.90
52513;DHT22;38422;53.172;6.974;2023-12-20T03:43:12;5.70;99.90
52513;DHT22;38422;53.172;6.974;2023-12-20T03:45:38;5.70;99.90
52513;DHT22;38422;53.172;6.974;2023-12-20T03:48:04;5.70;99.90
52513;DHT22;38422;53.172;6.974;2023-12-20T03:50:30;5.70;99.90
52513;DHT22;38422;53.172;6.974;2023-12-20T03:52:55;5.70;99.90
52513;DHT22;38422;53.172;6.974;2023-12-20T03:55:21;5.70;99.90
52513;DHT22;38422;53.172;6.974;2023-12-20T03:57:49;5.80;99.90
52513;DHT22;38422;53.172;6.974;2023-12-20T04:00:15;5.80;99.90
52513;DHT22;38422;53.172;6.974;2023-12-20T04:02:41;5.90;99.90
52513;DHT22;38422;53.172;6.974;2023-12-20T04:05:08;5.90;99.90
52513;DHT22;38422;53.172;6.974;2023-12-20T04:07:35;5.90;99.90
52513;DHT22;38422;53.172;6.974;2023-12-20T04:10:02;5.90;99.90
52513;DHT22;38422;53.172;6.974;2023-12-20T04:12:29;5.90;99.90
52513;DHT22;38422;53.172;6.974;2023-12-20T04:14:54;5.90;99.90
52513;DHT22;38422;53.172;6.974;2023-12-20T04:17:20;5.90;99.90
52513;DHT22;38422;53.172;6.974;2023-12-20T04:19:48;5.90;99.90
52513;DHT22;38422;53.172;6.974;2023-12-20T04:22:14;5.90;99.90
52513;DHT22;38422;53.172;6.974;2023-12-20T04:24:39;5.90;99.90
52513;DHT22;38422;53.172;6.974;2023-12-20T04:27:07;5.90;99.90
52513;DHT22;38422;53.172;6.974;2023-12-20T04:29:33;5.90;99.90
52513;DHT22;38422;53.172;6.974;2023-12-20T04:31:59;5.90;99.90
52513;DHT22;38422;53.172;6.974;2023-12-20T04:34:25;5.90;99.90
52513;DHT22;38422;53.172;6.974;2023-12-20T04:36:52;5.90;99.90
52513;DHT22;38422;53.172;6.974;2023-12-20T04:39:17;5.90;99.90
52513;DHT22;38422;53.172;6.974;2023-12-20T04:41:43;5.90;99.90
52513;DHT22;38422;53.172;6.974;2023-12-20T04:44:08;5.90;99.90
52513;DHT22;38422;53.172;6.974;2023-12-20T04:46:34;5.90;99.90
52513;DHT22;38422;53.172;6.974;2023-12-20T04:49:01;5.90;99.90
52513;DHT22;38422;53.172;6.974;2023-12-20T04:51:27;5.90;99.90
52513;DHT22;38422;53.172;6.974;2023-12-20T04:53:52;5.90;99.90
52513;DHT22;38422;53.172;6.974;2023-12-20T04:56:18;5.90;99.90
52513;DHT22;38422;53.172;6.974;2023-12-20T04:58:44;5.90;99.90
52513;DHT22;38422;53.172;6.974;2023-12-20T05:01:09;6.00;99.90
52513;DHT22;38422;53.172;6.974;2023-12-20T05:03:35;6.00;99.90
52513;DHT22;38422;53.172;6.974;2023-12-20T05:06:01;6.00;99.90
52513;DHT22;38422;53.172;6.974;2023-12-20T05:08:27;6.10;99.90
52513;DHT22;38422;53.172;6.974;2023-12-20T05:10:54;6.10;99.90
52513;DHT22;38422;53.172;6.974;2023-12-20T05:13:20;6.10;99.90
52513;DHT22;38422;53.172;6.974;2023-12-20T05:15:46;6.10;99.90
52513;DHT22;38422;53.172;6.974;2023-12-20T05:18:12;6.20;99.90
52513;DHT22;38422;53.172;6.974;2023-12-20T05:20:38;6.20;99.90
52513;DHT22;38422;53.172;6.974;2023-12-20T05:23:04;6.20;99.90
52513;DHT22;38422;53.172;6.974;2023-12-20T05:25:30;6.20;99.90
52513;DHT22;38422;53.172;6.974;2023-12-20T05:27:55;6.20;99.90
52513;DHT22;38422;53.172;6.974;2023-12-20T05:30:21;6.20;99.90
52513;DHT22;38422;53.172;6.974;2023-12-20T05:32:47;6.20;99.90
52513;DHT22;38422;53.172;6.974;2023-12-20T05:35:13;6.30;99.90
52513;DHT22;38422;53.172;6.974;2023-12-20T05:37:39;6.30;99.90
52513;DHT22;38422;53.172;6.974;2023-12-20T05:40:05;6.30;99.90
52513;DHT22;38422;53.172;6.974;2023-12-20T05:42:31;6.30;99.90
52513;DHT22;38422;53.172;6.974;2023-12-20T05:44:57;6.30;99.90
52513;DHT22;38422;53.172;6.974;2023-12-20T05:47:22;6.40;99.90
52513;DHT22;38422;53.172;6.974;2023-12-20T05:49:48;6.40;99.90
52513;DHT22;38422;53.172;6.974;2023-12-20T05:52:15;6.40;99.90
52513;DHT22;38422;53.172;6.974;2023-12-20T05:54:41;6.40;99.90
52513;DHT22;38422;53.172;6.974;2023-12-20T05:57:07;6.40;99.90
52513;DHT22;38422;53.172;6.974;2023-12-20T05:59:32;6.40;99.90
52513;DHT22;38422;53.172;6.974;2023-12-20T06:01:58;6.40;99.90
52513;DHT22;38422;53.172;6.974;2023-12-20T06:04:27;6.40;99.90
52513;DHT22;38422;53.172;6.974;2023-12-20T06:06:53;6.50;99.90
52513;DHT22;38422;53.172;6.974;2023-12-20T06:09:18;6.50;99.90
52513;DHT22;38422;53.172;6.974;2023-12-20T06:11:44;6.50;99.90
52513;DHT22;38422;53.172;6.974;2023-12-20T06:14:11;6.50;99.90
52513;DHT22;38422;53.172;6.974;2023-12-20T06:16:37;6.50;99.90
52513;DHT22;38422;53.172;6.974;2023-12-20T06:19:02;6.50;99.90
52513;DHT22;38422;53.172;6.974;2023-12-20T06:21:28;6.50;99.90
52513;DHT22;38422;53.172;6.974;2023-12-20T06:23:53;6.50;99.90
52513;DHT22;38422;53.172;6.974;2023-12-20T06:26:20;6.50;99.90
52513;DHT22;38422;53.172;6.974;2023-12-20T06:28:46;6.50;99.90
52513;DHT22;38422;53.172;6.974;2023-12-20T06:31:11;6.50;99.90
52513;DHT22;38422;53.172;6.974;2023-12-20T06:33:38;6.50;99.90
52513;DHT22;38422;53.172;6.974;2023-12-20T06:36:06;6.50;99.90
52513;DHT22;38422;53.172;6.974;2023-12-20T06:38:32;6.50;99.90
52513;DHT22;38422;53.172;6.974;2023-12-20T06:40:57;6.50;99.90
52513;DHT22;38422;53.172;6.974;2023-12-20T06:43:24;6.50;99.90
52513;DHT22;38422;53.172;6.974;2023-12-20T06:45:50;6.50;99.90
52513;DHT22;38422;53.172;6.974;2023-12-20T06:48:16;6.50;99.90
52513;DHT22;38422;53.172;6.974;2023-12-20T06:50:42;6.60;99.90
52513;DHT22;38422;53.172;6.974;2023-12-20T06:53:08;6.50;99.90
52513;DHT22;38422;53.172;6.974;2023-12-20T06:55:35;6.60;99.90
52513;DHT22;38422;53.172;6.974;2023-12-20T06:58:01;6.60;99.90
52513;DHT22;38422;53.172;6.974;2023-12-20T07:00:27;6.60;99.90
52513;DHT22;38422;53.172;6.974;2023-12-20T07:02:53;6.50;99.90
52513;DHT22;38422;53.172;6.974;2023-12-20T07:05:18;6.50;99.90
52513;DHT22;38422;53.172;6.974;2023-12-20T07:07:46;6.50;99.90
52513;DHT22;38422;53.172;6.974;2023-12-20T07:10:12;6.60;99.90
52513;DHT22;38422;53.172;6.974;2023-12-20T07:12:38;6.60;99.90
52513;DHT22;38422;53.172;6.974;2023-12-20T07:15:04;6.60;99.90
52513;DHT22;38422;53.172;6.974;2023-12-20T07:17:32;6.60;99.90
52513;DHT22;38422;53.172;6.974;2023-12-20T07:19:58;6.60;99.90
52513;DHT22;38422;53.172;6.974;2023-12-20T07:22:24;6.60;99.90
52513;DHT22;38422;53.172;6.974;2023-12-20T07:24:50;6.60;99.90
52513;DHT22;38422;53.172;6.974;2023-12-20T07:27:17;6.60;99.90
52513;DHT22;38422;53.172;6.974;2023-12-20T07:29:43;6.60;99.90
52513;DHT22;38422;53.172;6.974;2023-12-20T07:32:08;6.70;99.90
52513;DHT22;38422;53.172;6.974;2023-12-20T07:34:34;6.70;99.90
52513;DHT22;38422;53.172;6.974;2023-12-20T07:37:00;6.70;99.90
52513;DHT22;38422;53.172;6.974;2023-12-20T07:39:26;6.70;99.90
52513;DHT22;38422;53.172;6.974;2023-12-20T07:41:51;6.70;99.90
52513;DHT22;38422;53.172;6.974;2023-12-20T07:44:17;6.70;99.90
52513;DHT22;38422;53.172;6.974;2023-12-20T07:46:42;6.70;99.90
52513;DHT22;38422;53.172;6.974;2023-12-20T07:49:08;6.70;99.90
52513;DHT22;38422;53.172;6.974;2023-12-20T07:51:35;6.70;99.90
52513;DHT22;38422;53.172;6.974;2023-12-20T07:54:01;6.70;99.90
52513;DHT22;38422;53.172;6.974;2023-12-20T07:56:27;6.70;99.90
52513;DHT22;38422;53.172;6.974;2023-12-20T07:58:52;6.80;99.90
52513;DHT22;38422;53.172;6.974;2023-12-20T08:01:18;6.80;99.90
52513;DHT22;38422;53.172;6.974;2023-12-20T08:03:44;6.80;99.90
52513;DHT22;38422;53.172;6.974;2023-12-20T08:06:09;6.80;99.90
52513;DHT22;38422;53.172;6.974;2023-12-20T08:08:35;6.80;99.90
52513;DHT22;38422;53.172;6.974;2023-12-20T08:11:01;6.80;99.90
52513;DHT22;38422;53.172;6.974;2023-12-20T08:13:28;6.90;99.90
52513;DHT22;38422;53.172;6.974;2023-12-20T08:15:54;6.90;99.90
52513;DHT22;38422;53.172;6.974;2023-12-20T08:18:21;6.90;99.90
52513;DHT22;38422;53.172;6.974;2023-12-20T08:20:47;6.90;99.90
52513;DHT22;38422;53.172;6.974;2023-12-20T08:23:13;7.00;99.90
52513;DHT22;38422;53.172;6.974;2023-12-20T08:25:39;7.00;99.90
52513;DHT22;38422;53.172;6.974;2023-12-20T08:28:05;7.00;99.90
52513;DHT22;38422;53.172;6.974;2023-12-20T08:30:31;7.00;99.90
52513;DHT22;38422;53.172;6.974;2023-12-20T08:33:00;7.00;99.90
52513;DHT22;38422;53.172;6.974;2023-12-20T08:35:26;7.00;99.90
52513;DHT22;38422;53.172;6.974;2023-12-20T08:37:51;7.00;99.90
52513;DHT22;38422;53.172;6.974;2023-12-20T08:40:17;7.10;99.90
52513;DHT22;38422;53.172;6.974;2023-12-20T08:42:43;7.10;99.90
52513;DHT22;38422;53.172;6.974;2023-12-20T08:45:09;7.20;99.90
52513;DHT22;38422;53.172;6.974;2023-12-20T08:47:35;7.20;99.90
52513;DHT22;38422;53.172;6.974;2023-12-20T08:50:02;7.30;99.90
52513;DHT22;38422;53.172;6.974;2023-12-20T08:52:27;7.40;99.90
52513;DHT22;38422;53.172;6.974;2023-12-20T08:54:54;7.40;99.90
52513;DHT22;38422;53.172;6.974;2023-12-20T08:57:20;7.10;99.90
52513;DHT22;38422;53.172;6.974;2023-12-20T08:59:47;6.90;99.90
52513;DHT22;38422;53.172;6.974;2023-12-20T09:02:14;6.60;99.90
52513;DHT22;38422;53.172;6.974;2023-12-20T09:04:39;6.40;99.90
52513;DHT22;38422;53.172;6.974;2023-12-20T09:07:05;6.30;99.90
52513;DHT22;38422;53.172;6.974;2023-12-20T09:09:31;6.20;99.90
52513;DHT22;38422;53.172;6.974;2023-12-20T09:11:58;6.10;99.90
52513;DHT22;38422;53.172;6.974;2023-12-20T09:14:23;6.00;99.90
52513;DHT22;38422;53.172;6.974;2023-12-20T09:16:49;5.90;99.90
52513;DHT22;38422;53.172;6.974;2023-12-20T09:19:17;5.90;99.90
52513;DHT22;38422;53.172;6.974;2023-12-20T09:21:43;5.90;99.90
52513;DHT22;38422;53.172;6.974;2023-12-20T09:24:08;5.90;99.90
52513;DHT22;38422;53.172;6.974;2023-12-20T09:26:34;5.90;99.90
52513;DHT22;38422;53.172;6.974;2023-12-20T09:29:00;5.90;99.90
52513;DHT22;38422;53.172;6.974;2023-12-20T09:31:26;5.90;99.90
52513;DHT22;38422;53.172;6.974;2023-12-20T09:33:52;5.90;99.90
52513;DHT22;38422;53.172;6.974;2023-12-20T09:36:18;5.90;99.90
52513;DHT22;38422;53.172;6.974;2023-12-20T09:38:43;5.90;99.90
52513;DHT22;38422;53.172;6.974;2023-12-20T09:41:09;6.00;99.90
52513;DHT22;38422;53.172;6.974;2023-12-20T09:43:37;6.00;99.90
52513;DHT22;38422;53.172;6.974;2023-12-20T09:46:06;6.00;99.90
52513;DHT22;38422;53.172;6.974;2023-12-20T09:48:36;6.00;99.90
52513;DHT22;38422;53.172;6.974;2023-12-20T09:51:03;6.00;99.90
52513;DHT22;38422;53.172;6.974;2023-12-20T09:53:29;6.10;99.90
52513;DHT22;38422;53.172;6.974;2023-12-20T09:55:58;6.10;99.90
52513;DHT22;38422;53.172;6.974;2023-12-20T09:58:25;6.10;99.90
52513;DHT22;38422;53.172;6.974;2023-12-20T10:00:53;6.10;99.90
52513;DHT22;38422;53.172;6.974;2023-12-20T10:03:24;6.20;99.90
52513;DHT22;38422;53.172;6.974;2023-12-20T10:05:54;6.20;99.90
52513;DHT22;38422;53.172;6.974;2023-12-20T10:08:21;6.30;99.90
52513;DHT22;38422;53.172;6.974;2023-12-20T10:10:48;6.30;99.90
52513;DHT22;38422;53.172;6.974;2023-12-20T10:13:15;6.30;99.90
52513;DHT22;38422;53.172;6.974;2023-12-20T10:15:41;6.30;99.90
52513;DHT22;38422;53.172;6.974;2023-12-20T10:18:07;6.40;99.90
52513;DHT22;38422;53.172;6.974;2023-12-20T10:20:33;6.40;99.90
52513;DHT22;38422;53.172;6.974;2023-12-20T10:23:00;6.40;99.90
52513;DHT22;38422;53.172;6.974;2023-12-20T10:25:26;6.40;99.90
52513;DHT22;38422;53.172;6.974;2023-12-20T10:28:11;6.40;99.90
52513;DHT22;38422;53.172;6.974;2023-12-20T10:30:38;6.50;99.90
52513;DHT22;38422;53.172;6.974;2023-12-20T10:33:06;6.50;99.90
52513;DHT22;38422;53.172;6.974;2023-12-20T10:35:32;6.60;99.90
52513;DHT22;38422;53.172;6.974;2023-12-20T10:38:02;6.60;99.90
52513;DHT22;38422;53.172;6.974;2023-12-20T10:40:29;6.60;99.90
52513;DHT22;38422;53.172;6.974;2023-12-20T10:42:56;6.70;99.90
52513;DHT22;38422;53.172;6.974;2023-12-20T10:45:23;6.70;99.90
52513;DHT22;38422;53.172;6.974;2023-12-20T10:47:50;6.80;99.90
52513;DHT22;38422;53.172;6.974;2023-12-20T10:50:16;6.80;99.90
52513;DHT22;38422;53.172;6.974;2023-12-20T10:52:44;6.90;99.90
52513;DHT22;38422;53.172;6.974;2023-12-20T10:55:10;7.00;99.90
52513;DHT22;38422;53.172;6.974;2023-12-20T10:57:36;7.10;99.90
52513;DHT22;38422;53.172;6.974;2023-12-20T11:00:02;7.20;99.90
52513;DHT22;38422;53.172;6.974;2023-12-20T11:02:39;7.30;99.90
52513;DHT22;38422;53.172;6.974;2023-12-20T11:05:19;7.30;99.90
52513;DHT22;38422;53.172;6.974;2023-12-20T11:07:52;7.30;99.90
52513;DHT22;38422;53.172;6.974;2023-12-20T11:11:04;7.40;99.90
52513;DHT22;38422;53.172;6.974;2023-12-20T11:13:36;7.50;99.90
52513;DHT22;38422;53.172;6.974;2023-12-20T11:16:03;7.60;99.90
52513;DHT22;38422;53.172;6.974;2023-12-20T11:18:30;7.70;99.90
52513;DHT22;38422;53.172;6.974;2023-12-20T11:21:06;7.90;99.90
52513;DHT22;38422;53.172;6.974;2023-12-20T11:23:32;7.90;99.90
52513;DHT22;38422;53.172;6.974;2023-12-20T11:26:02;7.90;99.90
52513;DHT22;38422;53.172;6.974;2023-12-20T11:28:28;7.90;99.90
52513;DHT22;38422;53.172;6.974;2023-12-20T11:30:57;7.80;99.90
52513;DHT22;38422;53.172;6.974;2023-12-20T11:33:45;7.70;99.90
52513;DHT22;38422;53.172;6.974;2023-12-20T11:36:15;7.60;99.90
52513;DHT22;38422;53.172;6.974;2023-12-20T11:39:09;7.50;99.90
52513;DHT22;38422;53.172;6.974;2023-12-20T11:41:36;7.50;99.90
52513;DHT22;38422;53.172;6.974;2023-12-20T11:44:04;7.40;99.90
52513;DHT22;38422;53.172;6.974;2023-12-20T11:46:31;7.30;99.90
52513;DHT22;38422;53.172;6.974;2023-12-20T11:48:57;7.20;99.90
52513;DHT22;38422;53.172;6.974;2023-12-20T11:51:23;7.20;99.90
52513;DHT22;38422;53.172;6.974;2023-12-20T11:53:51;7.20;99.90
52513;DHT22;38422;53.172;6.974;2023-12-20T11:56:18;7.20;99.90
52513;DHT22;38422;53.172;6.974;2023-12-20T11:58:44;7.20;99.90
52513;DHT22;38422;53.172;6.974;2023-12-20T12:01:10;7.20;99.90
52513;DHT22;38422;53.172;6.974;2023-12-20T12:03:36;7.30;99.90
52513;DHT22;38422;53.172;6.974;2023-12-20T12:06:02;7.50;99.90
52513;DHT22;38422;53.172;6.974;2023-12-20T12:08:29;7.60;99.90
52513;DHT22;38422;53.172;6.974;2023-12-20T12:10:55;7.60;99.90
52513;DHT22;38422;53.172;6.974;2023-12-20T12:13:21;7.60;99.90
52513;DHT22;38422;53.172;6.974;2023-12-20T12:15:48;7.60;99.90
52513;DHT22;38422;53.172;6.974;2023-12-20T12:18:17;7.60;99.90
52513;DHT22;38422;53.172;6.974;2023-12-20T12:20:43;7.60;99.90
52513;DHT22;38422;53.172;6.974;2023-12-20T12:23:09;7.50;99.90
52513;DHT22;38422;53.172;6.974;2023-12-20T12:25:37;7.50;99.90
52513;DHT22;38422;53.172;6.974;2023-12-20T12:28:03;7.50;99.90
52513;DHT22;38422;53.172;6.974;2023-12-20T12:30:29;7.40;99.90
52513;DHT22;38422;53.172;6.974;2023-12-20T12:32:56;7.40;99.90
52513;DHT22;38422;53.172;6.974;2023-12-20T12:35:21;7.40;99.90
52513;DHT22;38422;53.172;6.974;2023-12-20T12:37:47;7.40;99.90
52513;DHT22;38422;53.172;6.974;2023-12-20T12:40:15;7.30;99.90
52513;DHT22;38422;53.172;6.974;2023-12-20T12:42:43;7.30;99.90
52513;DHT22;38422;53.172;6.974;2023-12-20T12:45:11;7.30;99.90
52513;DHT22;38422;53.172;6.974;2023-12-20T12:47:40;7.20;99.90
52513;DHT22;38422;53.172;6.974;2023-12-20T12:50:06;7.30;99.90
52513;DHT22;38422;53.172;6.974;2023-12-20T12:52:32;7.30;99.90
52513;DHT22;38422;53.172;6.974;2023-12-20T12:54:59;7.30;99.90
52513;DHT22;38422;53.172;6.974;2023-12-20T12:57:24;7.30;99.90
52513;DHT22;38422;53.172;6.974;2023-12-20T12:59:50;7.30;99.90
52513;DHT22;38422;53.172;6.974;2023-12-20T13:02:16;7.30;99.90
52513;DHT22;38422;53.172;6.974;2023-12-20T13:04:42;7.30;99.90
52513;DHT22;38422;53.172;6.974;2023-12-20T13:07:09;7.30;99.90
52513;DHT22;38422;53.172;6.974;2023-12-20T13:09:38;7.30;99.90
52513;DHT22;38422;53.172;6.974;2023-12-20T13:12:05;7.30;99.90
52513;DHT22;38422;53.172;6.974;2023-12-20T13:14:35;7.30;99.90
52513;DHT22;38422;53.172;6.974;2023-12-20T13:17:03;7.40;99.90
52513;DHT22;38422;53.172;6.974;2023-12-20T13:19:29;7.30;99.90
52513;DHT22;38422;53.172;6.974;2023-12-20T13:21:56;7.30;99.90
52513;DHT22;38422;53.172;6.974;2023-12-20T13:24:22;7.30;99.90
52513;DHT22;38422;53.172;6.974;2023-12-20T13:26:47;7.30;99.90
52513;DHT22;38422;53.172;6.974;2023-12-20T13:29:13;7.30;99.90
52513;DHT22;38422;53.172;6.974;2023-12-20T13:31:39;7.30;99.90
52513;DHT22;38422;53.172;6.974;2023-12-20T13:34:06;7.40;99.90
52513;DHT22;38422;53.172;6.974;2023-12-20T13:36:32;7.40;99.90
52513;DHT22;38422;53.172;6.974;2023-12-20T13:39:03;7.40;99.90
52513;DHT22;38422;53.172;6.974;2023-12-20T13:41:30;7.30;99.90
52513;DHT22;38422;53.172;6.974;2023-12-20T13:43:56;7.30;99.90
52513;DHT22;38422;53.172;6.974;2023-12-20T13:46:22;7.30;99.90
52513;DHT22;38422;53.172;6.974;2023-12-20T13:48:48;7.30;99.90
52513;DHT22;38422;53.172;6.974;2023-12-20T13:51:15;7.30;99.90
52513;DHT22;38422;53.172;6.974;2023-12-20T13:53:42;7.20;99.90
52513;DHT22;38422;53.172;6.974;2023-12-20T13:56:07;7.20;99.90
52513;DHT22;38422;53.172;6.974;2023-12-20T13:58:33;7.20;99.90
52513;DHT22;38422;53.172;6.974;2023-12-20T14:00:59;7.10;99.90
52513;DHT22;38422;53.172;6.974;2023-12-20T14:03:26;7.10;99.90
52513;DHT22;38422;53.172;6.974;2023-12-20T14:05:51;7.10;99.90
52513;DHT22;38422;53.172;6.974;2023-12-20T14:08:17;7.00;99.90
52513;DHT22;38422;53.172;6.974;2023-12-20T14:10:44;7.00;99.90
52513;DHT22;38422;53.172;6.974;2023-12-20T14:13:11;7.00;99.90
52513;DHT22;38422;53.172;6.974;2023-12-20T14:15:37;7.00;99.90
52513;DHT22;38422;53.172;6.974;2023-12-20T14:18:06;6.90;99.90
52513;DHT22;38422;53.172;6.974;2023-12-20T14:20:33;6.90;99.90
52513;DHT22;38422;53.172;6.974;2023-12-20T14:23:02;6.90;99.90
52513;DHT22;38422;53.172;6.974;2023-12-20T14:25:29;6.90;99.90
52513;DHT22;38422;53.172;6.974;2023-12-20T14:27:55;6.90;99.90
52513;DHT22;38422;53.172;6.974;2023-12-20T14:30:21;6.90;99.90
52513;DHT22;38422;53.172;6.974;2023-12-20T14:32:47;6.80;99.90
52513;DHT22;38422;53.172;6.974;2023-12-20T14:35:14;6.80;99.90
52513;DHT22;38422;53.172;6.974;2023-12-20T14:37:39;6.80;99.90
52513;DHT22;38422;53.172;6.974;2023-12-20T14:40:10;6.80;99.90
52513;DHT22;38422;53.172;6.974;2023-12-20T14:42:36;6.70;99.90
52513;DHT22;38422;53.172;6.974;2023-12-20T14:45:02;6.70;99.90
52513;DHT22;38422;53.172;6.974;2023-12-20T14:47:28;6.70;99.90
52513;DHT22;38422;53.172;6.974;2023-12-20T14:49:54;6.70;99.90
52513;DHT22;38422;53.172;6.974;2023-12-20T14:52:20;6.70;99.90
52513;DHT22;38422;53.172;6.974;2023-12-20T14:54:45;6.70;99.90
52513;DHT22;38422;53.172;6.974;2023-12-20T14:57:11;6.70;99.90
52513;DHT22;38422;53.172;6.974;2023-12-20T14:59:37;6.70;99.90
52513;DHT22;38422;53.172;6.974;2023-12-20T15:02:02;6.70;99.90
52513;DHT22;38422;53.172;6.974;2023-12-20T15:04:33;6.70;99.90
52513;DHT22;38422;53.172;6.974;2023-12-20T15:06:59;6.70;99.90
52513;DHT22;38422;53.172;6.974;2023-12-20T15:09:26;6.60;99.90
52513;DHT22;38422;53.172;6.974;2023-12-20T15:11:52;6.60;99.90
52513;DHT22;38422;53.172;6.974;2023-12-20T15:14:17;6.60;99.90
52513;DHT22;38422;53.172;6.974;2023-12-20T15:16:48;6.60;99.90
52513;DHT22;38422;53.172;6.974;2023-12-20T15:19:13;6.60;99.90
52513;DHT22;38422;53.172;6.974;2023-12-20T15:21:39;6.50;99.90
52513;DHT22;38422;53.172;6.974;2023-12-20T15:24:09;6.60;99.90
52513;DHT22;38422;53.172;6.974;2023-12-20T15:26:42;6.50;99.90
52513;DHT22;38422;53.172;6.974;2023-12-20T15:29:09;6.50;99.90
52513;DHT22;38422;53.172;6.974;2023-12-20T15:31:47;6.60;99.90
52513;DHT22;38422;53.172;6.974;2023-12-20T15:34:14;6.50;99.90
52513;DHT22;38422;53.172;6.974;2023-12-20T15:36:41;6.50;99.90
52513;DHT22;38422;53.172;6.974;2023-12-20T15:39:07;6.50;99.90
52513;DHT22;38422;53.172;6.974;2023-12-20T15:41:35;6.50;99.90